sensor_id;sensor_type;location;lat;lon;timestamp;pressure;altitude;pressure_sealevel;temperature;humidity
49461;BME280;35355;49.198;-0.368;2022-08-03T00:02:22;101077.78;;;20.48;77.31
49461;BME280;35355;49.198;-0.368;2022-08-03T00:04:47;101077.78;;;20.48;77.10
49461;BME280;35355;49.198;-0.368;2022-08-03T00:07:12;101074.16;;;20.47;77.35
49461;BME280;35355;49.198;-0.368;2022-08-03T00:09:38;101068.13;;;20.45;77.33
49461;BME280;35355;49.198;-0.368;2022-08-03T00:12:04;101062.59;;;20.45;77.43
49461;BME280;35355;49.198;-0.368;2022-08-03T00:14:29;101068.13;;;20.45;77.74
49461;BME280;35355;49.198;-0.368;2022-08-03T00:16:55;101063.22;;;20.42;77.73
49461;BME280;35355;49.198;-0.368;2022-08-03T00:19:20;101068.78;;;20.42;77.59
49461;BME280;35355;49.198;-0.368;2022-08-03T00:21:45;101062.22;;;20.38;77.39
49461;BME280;35355;49.198;-0.368;2022-08-03T00:24:11;101062.88;;;20.35;77.53
49461;BME280;35355;49.198;-0.368;2022-08-03T00:26:36;101065.16;;;20.33;77.60
49461;BME280;35355;49.198;-0.368;2022-08-03T00:29:02;101067.09;;;20.32;77.30
49461;BME280;35355;49.198;-0.368;2022-08-03T00:31:27;101067.41;;;20.31;77.38
49461;BME280;35355;49.198;-0.368;2022-08-03T00:33:53;101062.50;;;20.28;77.65
49461;BME280;35355;49.198;-0.368;2022-08-03T00:36:18;101060.88;;;20.27;77.46
49461;BME280;35355;49.198;-0.368;2022-08-03T00:38:43;101065.59;;;20.26;77.62
49461;BME280;35355;49.198;-0.368;2022-08-03T00:41:09;101057.63;;;20.25;77.78
49461;BME280;35355;49.198;-0.368;2022-08-03T00:43:34;101058.41;;;20.25;77.83
49461;BME280;35355;49.198;-0.368;2022-08-03T00:45:59;101062.34;;;20.24;77.53
49461;BME280;35355;49.198;-0.368;2022-08-03T00:48:25;101063.16;;;20.25;77.91
49461;BME280;35355;49.198;-0.368;2022-08-03T00:50:50;101053.19;;;20.24;78.16
49461;BME280;35355;49.198;-0.368;2022-08-03T00:53:16;101057.63;;;20.25;78.38
49461;BME280;35355;49.198;-0.368;2022-08-03T00:55:42;101054.03;;;20.24;78.21
49461;BME280;35355;49.198;-0.368;2022-08-03T00:58:08;101056.81;;;20.24;78.40
49461;BME280;35355;49.198;-0.368;2022-08-03T01:00:36;101053.72;;;20.26;78.54
49461;BME280;35355;49.198;-0.368;2022-08-03T01:03:09;101055.31;;;20.27;78.71
49461;BME280;35355;49.198;-0.368;2022-08-03T01:05:57;101049.97;;;20.30;77.78
49461;BME280;35355;49.198;-0.368;2022-08-03T01:11:07;101047.53;;;20.29;78.31
49461;BME280;35355;49.198;-0.368;2022-08-03T01:13:47;101045.25;;;20.31;78.22
49461;BME280;35355;49.198;-0.368;2022-08-03T01:16:19;101039.53;;;20.27;78.54
49461;BME280;35355;49.198;-0.368;2022-08-03T01:18:55;101042.94;;;20.24;76.98
49461;BME280;35355;49.198;-0.368;2022-08-03T01:21:28;101043.75;;;20.25;78.25
49461;BME280;35355;49.198;-0.368;2022-08-03T01:24:06;101040.19;;;20.24;78.72
49461;BME280;35355;49.198;-0.368;2022-08-03T01:26:45;101042.44;;;20.22;78.79
49461;BME280;35355;49.198;-0.368;2022-08-03T01:29:35;101038.53;;;20.23;79.03
49461;BME280;35355;49.198;-0.368;2022-08-03T01:32:15;101040.50;;;20.23;78.33
49461;BME280;35355;49.198;-0.368;2022-08-03T01:34:45;101038.03;;;20.21;78.66
49461;BME280;35355;49.198;-0.368;2022-08-03T01:37:15;101035.28;;;20.21;78.88
49461;BME280;35355;49.198;-0.368;2022-08-03T01:39:44;101032.81;;;20.20;78.94
49461;BME280;35355;49.198;-0.368;2022-08-03T01:42:10;101029.84;;;20.16;79.00
49461;BME280;35355;49.198;-0.368;2022-08-03T01:44:39;101029.06;;;20.15;78.94
49461;BME280;35355;49.198;-0.368;2022-08-03T01:47:06;101024.63;;;20.14;78.97
49461;BME280;35355;49.198;-0.368;2022-08-03T01:49:38;101022.50;;;20.11;78.81
49461;BME280;35355;49.198;-0.368;2022-08-03T01:52:05;101024.78;;;20.09;79.01
49461;BME280;35355;49.198;-0.368;2022-08-03T01:54:36;101019.56;;;20.08;78.73
49461;BME280;35355;49.198;-0.368;2022-08-03T01:57:05;101025.41;;;20.06;78.63
49461;BME280;35355;49.198;-0.368;2022-08-03T01:59:34;101025.41;;;20.06;78.81
49461;BME280;35355;49.198;-0.368;2022-08-03T02:02:01;101017.41;;;20.05;79.09
49461;BME280;35355;49.198;-0.368;2022-08-03T02:04:27;101017.41;;;20.05;79.31
49461;BME280;35355;49.198;-0.368;2022-08-03T02:06:53;101011.56;;;20.06;79.32
49461;BME280;35355;49.198;-0.368;2022-08-03T02:09:21;101010.75;;;20.06;79.27
49461;BME280;35355;49.198;-0.368;2022-08-03T02:11:48;101009.28;;;20.08;79.22
49461;BME280;35355;49.198;-0.368;2022-08-03T02:14:15;101009.94;;;20.05;79.50
49461;BME280;35355;49.198;-0.368;2022-08-03T02:16:42;101005.19;;;20.06;79.56
49461;BME280;35355;49.198;-0.368;2022-08-03T02:19:09;100996.09;;;20.05;79.43
49461;BME280;35355;49.198;-0.368;2022-08-03T02:21:36;100999.97;;;20.04;80.04
49461;BME280;35355;49.198;-0.368;2022-08-03T02:24:03;100998.84;;;20.05;79.57
49461;BME280;35355;49.198;-0.368;2022-08-03T02:26:30;100997.69;;;20.06;79.38
49461;BME280;35355;49.198;-0.368;2022-08-03T02:29:01;101007.66;;;20.07;79.36
49461;BME280;35355;49.198;-0.368;2022-08-03T02:31:29;101008.28;;;20.04;79.08
49461;BME280;35355;49.198;-0.368;2022-08-03T02:34:00;101001.75;;;20.00;79.12
49461;BME280;35355;49.198;-0.368;2022-08-03T02:36:28;101001.91;;;19.95;79.24
49461;BME280;35355;49.198;-0.368;2022-08-03T02:38:58;101000.59;;;19.92;79.01
49461;BME280;35355;49.198;-0.368;2022-08-03T02:41:29;100989.97;;;19.86;78.99
49461;BME280;35355;49.198;-0.368;2022-08-03T02:43:57;100987.00;;;19.82;79.17
49461;BME280;35355;49.198;-0.368;2022-08-03T02:46:27;100994.59;;;19.76;78.79
49461;BME280;35355;49.198;-0.368;2022-08-03T02:48:54;100998.00;;;19.73;79.21
49461;BME280;35355;49.198;-0.368;2022-08-03T02:51:21;100991.47;;;19.69;78.96
49461;BME280;35355;49.198;-0.368;2022-08-03T02:53:48;100992.63;;;19.68;79.22
49461;BME280;35355;49.198;-0.368;2022-08-03T02:56:15;100987.09;;;19.68;79.18
49461;BME280;35355;49.198;-0.368;2022-08-03T02:58:42;100990.16;;;19.67;79.17
49461;BME280;35355;49.198;-0.368;2022-08-03T03:01:10;100980.84;;;19.62;78.88
49461;BME280;35355;49.198;-0.368;2022-08-03T03:03:36;100975.13;;;19.59;79.05
49461;BME280;35355;49.198;-0.368;2022-08-03T03:06:03;100973.50;;;19.58;79.09
49461;BME280;35355;49.198;-0.368;2022-08-03T03:08:29;100978.22;;;19.57;79.08
49461;BME280;35355;49.198;-0.368;2022-08-03T03:10:57;100975.75;;;19.56;79.06
49461;BME280;35355;49.198;-0.368;2022-08-03T03:13:24;100971.69;;;19.53;78.99
49461;BME280;35355;49.198;-0.368;2022-08-03T03:15:51;100975.59;;;19.52;78.85
49461;BME280;35355;49.198;-0.368;2022-08-03T03:18:19;100963.50;;;19.48;78.94
49461;BME280;35355;49.198;-0.368;2022-08-03T03:20:46;100972.13;;;19.46;79.07
49461;BME280;35355;49.198;-0.368;2022-08-03T03:23:12;100970.31;;;19.42;79.15
49461;BME280;35355;49.198;-0.368;2022-08-03T03:25:38;100978.94;;;19.40;79.13
49461;BME280;35355;49.198;-0.368;2022-08-03T03:28:04;100974.84;;;19.38;78.98
49461;BME280;35355;49.198;-0.368;2022-08-03T03:30:30;100972.69;;;19.35;79.02
49461;BME280;35355;49.198;-0.368;2022-08-03T03:32:57;100974.16;;;19.32;78.92
49461;BME280;35355;49.198;-0.368;2022-08-03T03:35:22;100971.19;;;19.28;79.09
49461;BME280;35355;49.198;-0.368;2022-08-03T03:37:48;100975.09;;;19.27;79.14
49461;BME280;35355;49.198;-0.368;2022-08-03T03:40:13;100974.91;;;19.24;78.87
49461;BME280;35355;49.198;-0.368;2022-08-03T03:42:39;100979.31;;;19.25;79.12
49461;BME280;35355;49.198;-0.368;2022-08-03T03:45:06;100977.16;;;19.22;79.02
49461;BME280;35355;49.198;-0.368;2022-08-03T03:47:34;100971.13;;;19.20;79.05
49461;BME280;35355;49.198;-0.368;2022-08-03T03:50:03;100969.00;;;19.17;79.15
49461;BME280;35355;49.198;-0.368;2022-08-03T03:52:30;100969.00;;;19.17;78.88
49461;BME280;35355;49.198;-0.368;2022-08-03T03:54:56;100962.78;;;19.11;79.01
49461;BME280;35355;49.198;-0.368;2022-08-03T03:57:21;100961.97;;;19.10;78.96
49461;BME280;35355;49.198;-0.368;2022-08-03T03:59:47;100968.47;;;19.15;79.28
49461;BME280;35355;49.198;-0.368;2022-08-03T04:02:12;100961.81;;;19.16;79.40
49461;BME280;35355;49.198;-0.368;2022-08-03T04:04:38;100961.81;;;19.16;79.16
49461;BME280;35355;49.198;-0.368;2022-08-03T04:07:24;100955.47;;;19.15;79.47
49461;BME280;35355;49.198;-0.368;2022-08-03T04:10:27;100963.78;;;19.15;78.98
49461;BME280;35355;49.198;-0.368;2022-08-03T04:13:14;100966.56;;;19.15;79.09
49461;BME280;35355;49.198;-0.368;2022-08-03T04:15:42;100961.66;;;19.12;79.34
49461;BME280;35355;49.198;-0.368;2022-08-03T04:18:11;100962.47;;;19.13;79.37
49461;BME280;35355;49.198;-0.368;2022-08-03T04:20:39;100956.94;;;19.13;79.34
49461;BME280;35355;49.198;-0.368;2022-08-03T04:23:10;100960.19;;;19.15;79.28
49461;BME280;35355;49.198;-0.368;2022-08-03T04:25:39;100960.81;;;19.11;79.30
49461;BME280;35355;49.198;-0.368;2022-08-03T04:28:05;100954.78;;;19.09;79.49
49461;BME280;35355;49.198;-0.368;2022-08-03T04:30:32;100966.50;;;19.06;79.06
49461;BME280;35355;49.198;-0.368;2022-08-03T04:33:01;100961.06;;;19.01;79.37
49461;BME280;35355;49.198;-0.368;2022-08-03T04:35:32;100964.13;;;19.00;78.97
49461;BME280;35355;49.198;-0.368;2022-08-03T04:38:02;100959.56;;;18.95;78.81
49461;BME280;35355;49.198;-0.368;2022-08-03T04:40:32;100957.09;;;18.93;79.05
49461;BME280;35355;49.198;-0.368;2022-08-03T04:42:58;100967.66;;;18.91;78.79
49461;BME280;35355;49.198;-0.368;2022-08-03T04:45:26;100966.84;;;18.91;78.87
49461;BME280;35355;49.198;-0.368;2022-08-03T04:47:52;100961.94;;;18.88;78.77
49461;BME280;35355;49.198;-0.368;2022-08-03T04:50:18;100961.94;;;18.88;78.52
49461;BME280;35355;49.198;-0.368;2022-08-03T04:52:44;100959.16;;;18.88;78.36
49461;BME280;35355;49.198;-0.368;2022-08-03T04:55:10;100966.34;;;18.89;78.51
49461;BME280;35355;49.198;-0.368;2022-08-03T04:57:35;100966.66;;;18.87;78.40
49461;BME280;35355;49.198;-0.368;2022-08-03T05:00:01;100968.63;;;18.87;78.12
49461;BME280;35355;49.198;-0.368;2022-08-03T05:02:26;100975.28;;;18.86;78.40
49461;BME280;35355;49.198;-0.368;2022-08-03T05:04:51;100971.13;;;18.83;78.49
49461;BME280;35355;49.198;-0.368;2022-08-03T05:07:17;100980.25;;;18.84;78.46
49461;BME280;35355;49.198;-0.368;2022-08-03T05:09:43;100978.63;;;18.83;78.40
49461;BME280;35355;49.198;-0.368;2022-08-03T05:12:09;100976.97;;;18.82;78.23
49461;BME280;35355;49.198;-0.368;2022-08-03T05:14:36;100980.56;;;18.82;78.49
49461;BME280;35355;49.198;-0.368;2022-08-03T05:17:05;100983.63;;;18.81;78.33
49461;BME280;35355;49.198;-0.368;2022-08-03T05:19:30;100982.50;;;18.82;78.39
49461;BME280;35355;49.198;-0.368;2022-08-03T05:41:56;100992.25;;;18.15;77.63
49461;BME280;35355;49.198;-0.368;2022-08-03T05:44:21;100991.63;;;18.18;78.59
49461;BME280;35355;49.198;-0.368;2022-08-03T05:46:49;100993.16;;;18.24;79.55
49461;BME280;35355;49.198;-0.368;2022-08-03T05:49:15;100990.19;;;18.34;79.94
49461;BME280;35355;49.198;-0.368;2022-08-03T05:51:40;100991.31;;;18.47;80.49
49461;BME280;35355;49.198;-0.368;2022-08-03T05:54:05;100989.63;;;18.60;80.60
49461;BME280;35355;49.198;-0.368;2022-08-03T05:56:31;100993.19;;;18.74;81.13
49461;BME280;35355;49.198;-0.368;2022-08-03T05:58:56;100997.88;;;18.88;81.12
49461;BME280;35355;49.198;-0.368;2022-08-03T06:01:22;101000.63;;;19.02;81.00
49461;BME280;35355;49.198;-0.368;2022-08-03T06:03:48;100997.78;;;19.16;81.54
49461;BME280;35355;49.198;-0.368;2022-08-03T06:06:14;100986.47;;;19.26;81.66
49461;BME280;35355;49.198;-0.368;2022-08-03T06:08:40;100987.56;;;19.39;81.63
49461;BME280;35355;49.198;-0.368;2022-08-03T06:11:06;100989.75;;;19.51;81.63
49461;BME280;35355;49.198;-0.368;2022-08-03T06:13:32;100988.03;;;19.63;81.51
49461;BME280;35355;49.198;-0.368;2022-08-03T06:15:58;100990.03;;;19.72;81.46
49461;BME280;35355;49.198;-0.368;2022-08-03T06:18:23;100990.59;;;19.83;81.16
49461;BME280;35355;49.198;-0.368;2022-08-03T06:20:49;100993.06;;;19.93;81.31
49461;BME280;35355;49.198;-0.368;2022-08-03T06:23:15;100992.78;;;20.03;81.01
49461;BME280;35355;49.198;-0.368;2022-08-03T06:25:40;100990.91;;;20.12;80.94
49461;BME280;35355;49.198;-0.368;2022-08-03T06:28:06;100993.38;;;20.23;80.79
49461;BME280;35355;49.198;-0.368;2022-08-03T06:30:32;101003.50;;;20.27;80.57
49461;BME280;35355;49.198;-0.368;2022-08-03T06:32:57;100997.16;;;20.36;80.56
49461;BME280;35355;49.198;-0.368;2022-08-03T06:35:23;100991.16;;;20.42;80.38
49461;BME280;35355;49.198;-0.368;2022-08-03T06:37:49;101003.38;;;20.50;80.33
49461;BME280;35355;49.198;-0.368;2022-08-03T06:40:22;100999.81;;;20.58;80.13
49461;BME280;35355;49.198;-0.368;2022-08-03T06:43:01;100994.31;;;20.67;80.01
49461;BME280;35355;49.198;-0.368;2022-08-03T06:45:28;100994.63;;;20.74;79.89
49461;BME280;35355;49.198;-0.368;2022-08-03T06:48:08;100995.47;;;20.83;79.56
49461;BME280;35355;49.198;-0.368;2022-08-03T06:50:35;100991.41;;;20.90;79.52
49461;BME280;35355;49.198;-0.368;2022-08-03T06:53:02;100989.75;;;20.97;79.77
49461;BME280;35355;49.198;-0.368;2022-08-03T06:55:27;100989.28;;;21.04;79.33
49461;BME280;35355;49.198;-0.368;2022-08-03T06:57:52;100990.75;;;21.10;79.07
49461;BME280;35355;49.198;-0.368;2022-08-03T07:00:18;100993.53;;;21.19;78.85
49461;BME280;35355;49.198;-0.368;2022-08-03T07:02:44;100985.34;;;21.23;78.79
49461;BME280;35355;49.198;-0.368;2022-08-03T07:05:10;100985.66;;;21.30;78.64
49461;BME280;35355;49.198;-0.368;2022-08-03T07:07:36;100985.97;;;21.37;78.40
49461;BME280;35355;49.198;-0.368;2022-08-03T07:10:03;100984.31;;;21.45;78.07
49461;BME280;35355;49.198;-0.368;2022-08-03T07:12:29;100981.56;;;21.53;77.89
49461;BME280;35355;49.198;-0.368;2022-08-03T07:14:55;100983.19;;;21.63;77.76
49461;BME280;35355;49.198;-0.368;2022-08-03T07:17:21;100982.00;;;21.73;77.47
49461;BME280;35355;49.198;-0.368;2022-08-03T07:19:47;100981.63;;;21.83;77.36
49461;BME280;35355;49.198;-0.368;2022-08-03T07:22:13;100982.28;;;21.89;77.18
49461;BME280;35355;49.198;-0.368;2022-08-03T07:24:38;100983.22;;;22.02;76.96
49461;BME280;35355;49.198;-0.368;2022-08-03T07:27:06;100977.28;;;22.12;76.74
49461;BME280;35355;49.198;-0.368;2022-08-03T07:29:33;100973.66;;;22.20;76.17
49461;BME280;35355;49.198;-0.368;2022-08-03T07:31:58;100973.56;;;22.29;75.69
49461;BME280;35355;49.198;-0.368;2022-08-03T07:34:23;100972.88;;;22.41;75.39
49461;BME280;35355;49.198;-0.368;2022-08-03T07:36:49;100970.88;;;22.50;75.01
49461;BME280;35355;49.198;-0.368;2022-08-03T07:39:14;100978.81;;;22.60;74.81
49461;BME280;35355;49.198;-0.368;2022-08-03T07:41:39;100975.66;;;22.71;74.38
49461;BME280;35355;49.198;-0.368;2022-08-03T07:44:05;100977.06;;;22.77;74.03
49461;BME280;35355;49.198;-0.368;2022-08-03T07:46:30;100976.16;;;22.85;73.67
49461;BME280;35355;49.198;-0.368;2022-08-03T07:48:56;100973.31;;;22.94;73.84
49461;BME280;35355;49.198;-0.368;2022-08-03T07:51:21;100975.69;;;23.04;73.56
49461;BME280;35355;49.198;-0.368;2022-08-03T07:53:46;100970.06;;;23.13;72.90
49461;BME280;35355;49.198;-0.368;2022-08-03T07:56:12;100967.22;;;23.22;72.75
49461;BME280;35355;49.198;-0.368;2022-08-03T07:58:37;100972.00;;;23.34;72.48
49461;BME280;35355;49.198;-0.368;2022-08-03T08:01:02;100966.22;;;23.39;71.90
49461;BME280;35355;49.198;-0.368;2022-08-03T08:03:28;100962.88;;;23.45;72.26
49461;BME280;35355;49.198;-0.368;2022-08-03T08:05:53;100962.78;;;23.54;72.04
49461;BME280;35355;49.198;-0.368;2022-08-03T08:08:19;100965.00;;;23.61;71.28
49461;BME280;35355;49.198;-0.368;2022-08-03T08:10:45;100969.31;;;23.71;71.24
49461;BME280;35355;49.198;-0.368;2022-08-03T08:13:11;100972.47;;;23.81;70.62
49461;BME280;35355;49.198;-0.368;2022-08-03T08:15:36;100970.53;;;23.94;70.35
49461;BME280;35355;49.198;-0.368;2022-08-03T08:18:02;100971.25;;;24.04;69.83
49461;BME280;35355;49.198;-0.368;2022-08-03T08:20:30;100968.66;;;24.11;69.56
49461;BME280;35355;49.198;-0.368;2022-08-03T08:22:57;100970.09;;;24.17;69.08
49461;BME280;35355;49.198;-0.368;2022-08-03T08:25:23;100965.88;;;24.23;68.70
49461;BME280;35355;49.198;-0.368;2022-08-03T08:27:49;100964.47;;;24.29;68.71
49461;BME280;35355;49.198;-0.368;2022-08-03T08:30:17;100965.66;;;24.41;68.88
49461;BME280;35355;49.198;-0.368;2022-08-03T08:32:44;100960.47;;;24.55;68.05
49461;BME280;35355;49.198;-0.368;2022-08-03T08:35:10;100959.66;;;24.67;67.42
49461;BME280;35355;49.198;-0.368;2022-08-03T08:37:36;100954.44;;;24.78;67.33
49461;BME280;35355;49.198;-0.368;2022-08-03T08:40:02;100966.38;;;24.91;67.15
49461;BME280;35355;49.198;-0.368;2022-08-03T08:42:28;100954.72;;;25.01;66.45
49461;BME280;35355;49.198;-0.368;2022-08-03T08:44:53;100951.38;;;25.11;65.99
49461;BME280;35355;49.198;-0.368;2022-08-03T08:47:23;100954.00;;;25.20;65.81
49461;BME280;35355;49.198;-0.368;2022-08-03T08:49:51;100945.84;;;25.27;65.56
49461;BME280;35355;49.198;-0.368;2022-08-03T08:52:19;100947.59;;;25.32;65.19
49461;BME280;35355;49.198;-0.368;2022-08-03T08:54:48;100943.25;;;25.34;64.66
49461;BME280;35355;49.198;-0.368;2022-08-03T08:57:14;100947.78;;;25.39;64.34
49461;BME280;35355;49.198;-0.368;2022-08-03T08:59:41;100943.53;;;25.45;63.85
49461;BME280;35355;49.198;-0.368;2022-08-03T09:02:08;100944.66;;;25.56;63.47
49461;BME280;35355;49.198;-0.368;2022-08-03T09:04:33;100942.59;;;25.69;63.06
49461;BME280;35355;49.198;-0.368;2022-08-03T09:07:00;100941.69;;;25.81;62.51
49461;BME280;35355;49.198;-0.368;2022-08-03T09:09:26;100943.56;;;25.93;62.54
49461;BME280;35355;49.198;-0.368;2022-08-03T09:11:51;100952.59;;;26.02;61.93
49461;BME280;35355;49.198;-0.368;2022-08-03T09:14:17;100953.94;;;26.08;61.59
49461;BME280;35355;49.198;-0.368;2022-08-03T09:17:00;100949.56;;;26.07;63.01
49461;BME280;35355;49.198;-0.368;2022-08-03T09:19:27;100947.91;;;26.06;61.58
49461;BME280;35355;49.198;-0.368;2022-08-03T09:22:14;100956.03;;;26.12;62.63
49461;BME280;35355;49.198;-0.368;2022-08-03T09:25:04;100953.84;;;26.21;62.56
49461;BME280;35355;49.198;-0.368;2022-08-03T09:27:45;100953.56;;;26.26;61.85
49461;BME280;35355;49.198;-0.368;2022-08-03T09:30:16;100945.16;;;26.26;60.18
49461;BME280;35355;49.198;-0.368;2022-08-03T09:32:42;100950.03;;;26.29;59.95
49461;BME280;35355;49.198;-0.368;2022-08-03T09:35:13;100950.19;;;26.36;60.05
49461;BME280;35355;49.198;-0.368;2022-08-03T09:37:39;100945.56;;;26.44;59.85
49461;BME280;35355;49.198;-0.368;2022-08-03T09:40:05;100950.09;;;26.49;59.39
49461;BME280;35355;49.198;-0.368;2022-08-03T09:42:31;100944.19;;;26.54;59.47
49461;BME280;35355;49.198;-0.368;2022-08-03T09:45:02;100943.94;;;26.59;59.43
49461;BME280;35355;49.198;-0.368;2022-08-03T09:47:29;100942.09;;;26.67;59.63
49461;BME280;35355;49.198;-0.368;2022-08-03T09:50:04;100955.75;;;26.68;60.44
49461;BME280;35355;49.198;-0.368;2022-08-03T09:54:56;100955.81;;;26.56;60.16
49461;BME280;35355;49.198;-0.368;2022-08-03T09:57:23;100958.50;;;26.49;60.24
49461;BME280;35355;49.198;-0.368;2022-08-03T09:59:50;100962.22;;;26.37;60.63
49461;BME280;35355;49.198;-0.368;2022-08-03T10:02:26;100957.09;;;26.23;61.20
49461;BME280;35355;49.198;-0.368;2022-08-03T10:04:52;100956.13;;;26.15;61.02
49461;BME280;35355;49.198;-0.368;2022-08-03T10:07:23;100952.88;;;26.13;61.66
49461;BME280;35355;49.198;-0.368;2022-08-03T10:09:54;100951.63;;;26.11;61.74
49461;BME280;35355;49.198;-0.368;2022-08-03T10:12:20;100959.53;;;26.08;61.68
49461;BME280;35355;49.198;-0.368;2022-08-03T10:14:46;100962.53;;;26.00;61.59
49461;BME280;35355;49.198;-0.368;2022-08-03T10:17:11;100962.59;;;25.87;61.96
49461;BME280;35355;49.198;-0.368;2022-08-03T10:19:37;100960.47;;;25.81;62.62
49461;BME280;35355;49.198;-0.368;2022-08-03T10:22:09;100957.19;;;25.79;62.74
49461;BME280;35355;49.198;-0.368;2022-08-03T10:24:38;100953.41;;;25.71;62.58
49461;BME280;35355;49.198;-0.368;2022-08-03T10:27:06;100962.88;;;25.66;62.71
49461;BME280;35355;49.198;-0.368;2022-08-03T10:29:54;100960.09;;;25.66;63.13
49461;BME280;35355;49.198;-0.368;2022-08-03T10:32:50;100962.88;;;25.66;63.14
49461;BME280;35355;49.198;-0.368;2022-08-03T10:35:20;100967.56;;;25.62;62.79
49461;BME280;35355;49.198;-0.368;2022-08-03T10:38:05;100962.56;;;25.55;62.96
49461;BME280;35355;49.198;-0.368;2022-08-03T10:40:33;100960.63;;;25.56;62.60
49461;BME280;35355;49.198;-0.368;2022-08-03T10:43:06;100969.00;;;25.56;62.78
49461;BME280;35355;49.198;-0.368;2022-08-03T10:45:35;100949.69;;;25.51;62.80
49461;BME280;35355;49.198;-0.368;2022-08-03T10:48:05;100956.81;;;25.48;62.77
49461;BME280;35355;49.198;-0.368;2022-08-03T10:50:32;100955.44;;;25.42;62.75
49461;BME280;35355;49.198;-0.368;2022-08-03T10:53:02;100951.41;;;25.39;63.00
49461;BME280;35355;49.198;-0.368;2022-08-03T10:55:36;100957.44;;;25.42;62.98
49461;BME280;35355;49.198;-0.368;2022-08-03T11:01:02;100957.72;;;25.36;62.83
49461;BME280;35355;49.198;-0.368;2022-08-03T11:03:27;100951.19;;;25.32;62.64
49461;BME280;35355;49.198;-0.368;2022-08-03T11:06:13;100951.06;;;25.29;62.89
49461;BME280;35355;49.198;-0.368;2022-08-03T11:08:40;100939.81;;;25.25;62.85
49461;BME280;35355;49.198;-0.368;2022-08-03T11:14:04;100945.16;;;25.30;63.30
49461;BME280;35355;49.198;-0.368;2022-08-03T11:16:34;100942.91;;;25.36;62.96
49461;BME280;35355;49.198;-0.368;2022-08-03T11:19:02;100933.44;;;25.41;62.64
49461;BME280;35355;49.198;-0.368;2022-08-03T11:27:17;100929.53;;;25.29;62.36
49461;BME280;35355;49.198;-0.368;2022-08-03T11:40:39;100919.53;;;25.28;62.95
49461;BME280;35355;49.198;-0.368;2022-08-03T11:43:07;100911.16;;;25.28;62.60
49461;BME280;35355;49.198;-0.368;2022-08-03T11:45:34;100913.56;;;25.30;62.63
49461;BME280;35355;49.198;-0.368;2022-08-03T11:48:24;100910.91;;;25.33;62.52
49461;BME280;35355;49.198;-0.368;2022-08-03T11:50:48;100911.25;;;25.32;62.77
49461;BME280;35355;49.198;-0.368;2022-08-03T11:53:17;100902.06;;;25.31;62.42
49461;BME280;35355;49.198;-0.368;2022-08-03T11:55:44;100906.03;;;25.30;62.44
49461;BME280;35355;49.198;-0.368;2022-08-03T11:58:22;100904.88;;;25.31;62.82
49461;BME280;35355;49.198;-0.368;2022-08-03T12:00:49;100910.91;;;25.33;62.38
49461;BME280;35355;49.198;-0.368;2022-08-03T12:03:16;100914.16;;;25.35;62.52
49461;BME280;35355;49.198;-0.368;2022-08-03T12:05:47;100904.69;;;25.40;62.40
49461;BME280;35355;49.198;-0.368;2022-08-03T12:08:15;100914.34;;;25.43;62.06
49461;BME280;35355;49.198;-0.368;2022-08-03T12:10:50;100910.22;;;25.36;62.21
49461;BME280;35355;49.198;-0.368;2022-08-03T12:13:16;100908.09;;;25.33;62.10
49461;BME280;35355;49.198;-0.368;2022-08-03T12:15:42;100905.56;;;25.28;62.14
49461;BME280;35355;49.198;-0.368;2022-08-03T12:18:15;100903.47;;;25.25;62.46
49461;BME280;35355;49.198;-0.368;2022-08-03T12:20:41;100905.13;;;25.26;62.29
49461;BME280;35355;49.198;-0.368;2022-08-03T12:23:08;100907.66;;;25.31;62.52
49461;BME280;35355;49.198;-0.368;2022-08-03T12:25:35;100904.63;;;25.36;62.50
49461;BME280;35355;49.198;-0.368;2022-08-03T12:28:07;100901.53;;;25.42;62.42
49461;BME280;35355;49.198;-0.368;2022-08-03T12:30:33;100907.84;;;25.38;61.96
49461;BME280;35355;49.198;-0.368;2022-08-03T12:33:11;100915.09;;;25.27;62.19
49461;BME280;35355;49.198;-0.368;2022-08-03T12:35:37;100922.84;;;25.18;62.20
49461;BME280;35355;49.198;-0.368;2022-08-03T12:38:02;100911.94;;;25.13;62.36
49461;BME280;35355;49.198;-0.368;2022-08-03T12:40:27;100912.28;;;25.11;62.57
49461;BME280;35355;49.198;-0.368;2022-08-03T12:42:53;100919.84;;;25.11;62.61
49461;BME280;35355;49.198;-0.368;2022-08-03T12:45:19;100923.00;;;25.09;62.51
49461;BME280;35355;49.198;-0.368;2022-08-03T12:47:58;100919.19;;;25.01;62.81
49461;BME280;35355;49.198;-0.368;2022-08-03T12:50:32;100913.78;;;24.93;62.79
49461;BME280;35355;49.198;-0.368;2022-08-03T12:52:59;100912.75;;;24.85;62.96
49461;BME280;35355;49.198;-0.368;2022-08-03T12:55:25;100912.28;;;24.83;63.09
49461;BME280;35355;49.198;-0.368;2022-08-03T12:58:05;100919.94;;;24.86;63.32
49461;BME280;35355;49.198;-0.368;2022-08-03T13:00:31;100910.41;;;24.87;63.10
49461;BME280;35355;49.198;-0.368;2022-08-03T13:03:04;100911.22;;;24.87;63.37
49461;BME280;35355;49.198;-0.368;2022-08-03T13:05:41;100905.63;;;24.87;63.25
49461;BME280;35355;49.198;-0.368;2022-08-03T13:08:17;100911.22;;;24.87;63.49
49461;BME280;35355;49.198;-0.368;2022-08-03T13:10:43;100905.28;;;24.89;63.43
49461;BME280;35355;49.198;-0.368;2022-08-03T13:13:10;100903.31;;;24.90;63.18
49461;BME280;35355;49.198;-0.368;2022-08-03T13:15:35;100905.28;;;24.89;62.73
49461;BME280;35355;49.198;-0.368;2022-08-03T13:18:00;100900.88;;;24.88;63.05
49461;BME280;35355;49.198;-0.368;2022-08-03T13:20:26;100899.25;;;24.87;63.28
49461;BME280;35355;49.198;-0.368;2022-08-03T13:22:51;100900.41;;;24.86;63.06
49461;BME280;35355;49.198;-0.368;2022-08-03T13:25:17;100903.19;;;24.86;63.40
49461;BME280;35355;49.198;-0.368;2022-08-03T13:27:42;100894.72;;;24.82;63.30
49461;BME280;35355;49.198;-0.368;2022-08-03T13:30:09;100900.69;;;24.81;63.35
49461;BME280;35355;49.198;-0.368;2022-08-03T13:32:34;100899.75;;;24.77;63.28
49461;BME280;35355;49.198;-0.368;2022-08-03T13:35:00;100904.06;;;24.74;63.20